Time;durP1;ratioP1;P1;durP2;ratioP2;P2;SDS_P1;SDS_P2;PMS_P1;PMS_P2;Temp;Humidity;BMP_temperature;BMP_pressure;BME280_temperature;BME280_humidity;BME280_pressure;Samples;Min_cycle;Max_cycle;Signal;HPM_P1;HPM_P2
2022/11/26 00:00:17;;;;;;;25.05;14.32;;;5.10;99.90;;;;;;5014643;28;20045;-30
2022/11/26 00:02:44;;;;;;;29.73;15.35;;;5.10;99.90;;;;;;5010528;28;20038;-32
2022/11/26 00:05:14;;;;;;;24.77;14.73;;;5.10;99.90;;;;;;5010933;28;20038;-30
2022/11/26 00:07:43;;;;;;;28.85;14.95;;;5.10;99.90;;;;;;5011028;28;20025;-30
2022/11/26 00:10:35;;;;;;;32.65;15.15;;;5.10;99.90;;;;;;5013882;28;20529;-30
2022/11/26 00:13:01;;;;;;;31.33;16.08;;;5.00;99.90;;;;;;5014821;28;20069;-32
2022/11/26 00:15:29;;;;;;;33.65;15.85;;;5.10;99.90;;;;;;5010745;28;20038;-30
2022/11/26 00:17:55;;;;;;;33.40;16.98;;;5.10;99.90;;;;;;5010898;28;20129;-30
2022/11/26 00:20:29;;;;;;;28.50;15.82;;;5.10;99.90;;;;;;5016617;28;20490;-31
2022/11/26 00:23:00;;;;;;;28.00;16.02;;;5.10;99.90;;;;;;5008270;28;20048;-32
2022/11/26 00:25:36;;;;;;;29.00;15.25;;;5.10;99.90;;;;;;5026677;28;20391;-31
2022/11/26 00:28:02;;;;;;;25.38;14.40;;;5.10;99.90;;;;;;5020584;28;20065;-32
2022/11/26 00:30:28;;;;;;;25.67;14.30;;;5.00;99.90;;;;;;5011204;28;20052;-32
2022/11/26 00:32:55;;;;;;;28.00;14.30;;;5.00;99.90;;;;;;5011982;28;20558;-32
2022/11/26 00:35:22;;;;;;;35.90;17.70;;;5.00;99.90;;;;;;5011257;28;20080;-31
2022/11/26 00:37:51;;;;;;;29.48;16.23;;;5.00;99.90;;;;;;5011401;28;20550;-30
2022/11/26 00:40:20;;;;;;;29.98;16.75;;;4.90;99.90;;;;;;5010851;28;20048;-31
2022/11/26 00:42:46;;;;;;;30.00;17.25;;;4.90;99.90;;;;;;5010982;28;20121;-32
2022/11/26 00:45:15;;;;;;;30.25;15.30;;;4.90;99.90;;;;;;5011257;28;20479;-31
2022/11/26 00:47:41;;;;;;;33.13;18.02;;;4.90;99.90;;;;;;5010837;28;20038;-30
2022/11/26 00:50:12;;;;;;;33.60;17.10;;;4.90;99.90;;;;;;5010962;28;20125;-31
2022/11/26 00:52:38;;;;;;;27.58;15.60;;;4.90;99.90;;;;;;5018048;28;20550;-31
2022/11/26 00:55:27;;;;;;;32.70;18.90;;;4.90;99.90;;;;;;5015850;28;20077;-30
2022/11/26 00:57:53;;;;;;;30.70;17.40;;;4.90;99.90;;;;;;4995220;28;20045;-32
2022/11/26 01:00:23;;;;;;;41.97;21.15;;;4.80;99.90;;;;;;5015890;28;20392;-32
2022/11/26 01:02:48;;;;;;;36.65;17.85;;;4.90;99.90;;;;;;5022975;28;20132;-30
2022/11/26 01:05:15;;;;;;;27.90;16.67;;;4.90;99.90;;;;;;5014052;28;20073;-31
2022/11/26 01:07:43;;;;;;;28.83;17.13;;;4.80;99.90;;;;;;5017189;28;20292;-31
2022/11/26 01:10:25;;;;;;;26.30;16.58;;;4.80;99.90;;;;;;5011770;28;20117;-30
2022/11/26 01:12:52;;;;;;;30.08;16.40;;;4.80;99.90;;;;;;5016668;28;20046;-30
2022/11/26 01:15:22;;;;;;;27.17;15.45;;;4.70;99.90;;;;;;5019432;28;20046;-30
2022/11/26 01:17:48;;;;;;;27.83;16.38;;;4.70;99.90;;;;;;5035429;28;20041;-29
2022/11/26 01:20:20;;;;;;;23.45;16.23;;;4.70;99.90;;;;;;5024819;28;20192;-30
2022/11/26 01:22:47;;;;;;;28.55;17.65;;;4.60;99.90;;;;;;5015112;28;20041;-30
2022/11/26 01:25:13;;;;;;;32.22;17.92;;;4.60;99.90;;;;;;5013720;28;20030;-30
2022/11/26 01:27:38;;;;;;;29.48;16.10;;;4.60;99.90;;;;;;5014148;28;20494;-30
2022/11/26 01:30:24;;;;;;;36.13;19.92;;;4.60;99.90;;;;;;4997659;28;20046;-30
2022/11/26 01:32:51;;;;;;;24.50;16.42;;;4.60;99.90;;;;;;5013986;28;20041;-30
2022/11/26 01:35:18;;;;;;;31.15;18.13;;;4.60;99.90;;;;;;5014911;28;20057;-30
2022/11/26 01:37:45;;;;;;;31.80;17.95;;;4.60;99.90;;;;;;5025966;28;20048;-30
2022/11/26 01:40:37;;;;;;;27.73;17.23;;;4.60;99.90;;;;;;5021622;28;20042;-31
2022/11/26 01:43:11;;;;;;;31.63;17.05;;;4.60;99.90;;;;;;5022474;28;20429;-31
2022/11/26 01:45:36;;;;;;;41.25;22.42;;;4.60;99.90;;;;;;5025109;28;20486;-30
2022/11/26 01:48:21;;;;;;;30.10;18.33;;;4.60;99.90;;;;;;5031670;28;20069;-30
2022/11/26 01:50:51;;;;;;;29.48;18.15;;;4.60;99.90;;;;;;4999473;28;20117;-30
2022/11/26 01:53:28;;;;;;;37.42;19.75;;;4.60;99.90;;;;;;5003375;28;20376;-30
2022/11/26 01:55:58;;;;;;;26.83;18.23;;;4.60;99.90;;;;;;5025082;28;20399;-31
2022/11/26 01:58:47;;;;;;;35.58;18.90;;;4.60;99.90;;;;;;5001492;28;20063;-32
2022/11/26 02:01:14;;;;;;;27.05;17.80;;;4.50;99.90;;;;;;5014399;28;20049;-29
2022/11/26 02:03:53;;;;;;;31.02;18.08;;;4.50;99.90;;;;;;4996597;28;20042;-31
2022/11/26 02:06:24;;;;;;;26.25;17.13;;;4.50;99.90;;;;;;5022133;28;20041;-30
2022/11/26 02:08:50;;;;;;;27.58;18.15;;;4.40;99.90;;;;;;5019181;28;20112;-32
2022/11/26 02:11:19;;;;;;;28.42;18.38;;;4.40;99.90;;;;;;5012833;28;20073;-31
2022/11/26 02:13:47;;;;;;;26.83;18.08;;;4.40;99.90;;;;;;5019952;28;20072;-30
2022/11/26 02:16:33;;;;;;;27.27;17.80;;;4.40;99.90;;;;;;5014039;28;20121;-30
2022/11/26 02:19:27;;;;;;;31.05;18.63;;;4.40;99.90;;;;;;5013211;28;20491;-30
2022/11/26 02:22:08;;;;;;;31.73;19.00;;;4.40;99.90;;;;;;5007528;28;20038;-31
2022/11/26 02:24:49;;;;;;;29.95;20.20;;;4.30;99.90;;;;;;5009992;28;20792;-30
2022/11/26 02:27:18;;;;;;;35.72;20.15;;;4.30;99.90;;;;;;5004006;28;20033;-31
2022/11/26 02:30:01;;;;;;;32.13;20.98;;;4.30;99.90;;;;;;5031312;28;20123;-30
2022/11/26 02:32:41;;;;;;;41.37;25.83;;;4.30;99.90;;;;;;5012769;28;20053;-31
2022/11/26 02:35:23;;;;;;;32.47;21.48;;;4.40;99.90;;;;;;5012449;28;20077;-31
2022/11/26 02:37:57;;;;;;;33.40;22.52;;;4.40;99.90;;;;;;5022870;28;20041;-32
2022/11/26 02:40:23;;;;;;;37.78;23.30;;;4.30;99.90;;;;;;4989301;28;20046;-31
2022/11/26 02:42:49;;;;;;;34.17;21.38;;;4.40;99.90;;;;;;5032746;28;20394;-31
2022/11/26 02:45:31;;;;;;;39.28;23.02;;;4.40;99.90;;;;;;5013982;28;20030;-29
2022/11/26 02:47:59;;;;;;;31.60;20.88;;;4.30;99.90;;;;;;5029407;28;20186;-32
2022/11/26 02:50:39;;;;;;;35.50;22.95;;;4.40;99.90;;;;;;5012066;28;20038;-31
2022/11/26 02:53:08;;;;;;;33.80;21.55;;;4.30;99.90;;;;;;5016588;28;20049;-31
2022/11/26 02:55:38;;;;;;;29.63;20.50;;;4.30;99.90;;;;;;5014339;28;20286;-32
2022/11/26 02:58:05;;;;;;;39.33;24.10;;;4.30;99.90;;;;;;5012572;28;20051;-30
2022/11/26 03:00:35;;;;;;;33.60;23.83;;;4.30;99.90;;;;;;5012170;28;20049;-30
2022/11/26 03:03:03;;;;;;;35.97;22.52;;;4.30;99.90;;;;;;5012167;28;20042;-31
2022/11/26 03:05:36;;;;;;;29.15;20.38;;;4.20;99.90;;;;;;5012145;28;20113;-31
2022/11/26 03:08:04;;;;;;;40.78;21.88;;;4.20;99.90;;;;;;5011865;28;20096;-30
2022/11/26 03:10:31;;;;;;;48.65;24.23;;;4.20;99.90;;;;;;5011483;28;20076;-31
2022/11/26 03:12:57;;;;;;;28.25;21.50;;;4.10;99.90;;;;;;4976293;28;20130;-33
2022/11/26 03:15:23;;;;;;;37.63;21.85;;;4.10;99.90;;;;;;5010514;28;20045;-30
2022/11/26 03:17:49;;;;;;;31.33;21.67;;;4.10;99.90;;;;;;5011643;28;20038;-31
2022/11/26 03:20:16;;;;;;;34.78;22.42;;;4.10;99.90;;;;;;5011745;28;20124;-31
2022/11/26 03:22:42;;;;;;;25.27;20.35;;;4.10;99.90;;;;;;5017219;28;20058;-32
2022/11/26 03:25:08;;;;;;;31.30;21.55;;;4.10;99.90;;;;;;5011723;28;20091;-31
2022/11/26 03:27:34;;;;;;;31.85;20.75;;;4.10;99.90;;;;;;5011351;28;20487;-31
2022/11/26 03:30:00;;;;;;;33.95;21.15;;;4.10;99.90;;;;;;5011370;28;20034;-30
2022/11/26 03:32:26;;;;;;;33.42;21.23;;;4.10;99.90;;;;;;5011778;28;20121;-31
2022/11/26 03:34:52;;;;;;;39.05;21.70;;;4.00;99.90;;;;;;5014335;28;20042;-32
2022/11/26 03:37:18;;;;;;;37.22;23.20;;;4.00;99.90;;;;;;5011598;28;20038;-30
2022/11/26 03:39:44;;;;;;;30.17;22.17;;;4.00;99.90;;;;;;5011596;28;20049;-31
2022/11/26 03:42:10;;;;;;;32.53;21.88;;;4.00;99.90;;;;;;5011376;28;20503;-32
2022/11/26 03:44:36;;;;;;;32.70;22.35;;;4.00;99.90;;;;;;4995572;28;20042;-31
2022/11/26 03:47:02;;;;;;;32.55;23.15;;;4.00;99.90;;;;;;5032312;28;20041;-29
2022/11/26 03:49:27;;;;;;;34.28;22.13;;;4.00;99.90;;;;;;5030954;28;20073;-30
2022/11/26 03:51:53;;;;;;;30.75;19.20;;;3.90;99.90;;;;;;5014529;28;20065;-30
2022/11/26 03:54:19;;;;;;;45.65;24.90;;;3.90;99.90;;;;;;5006255;28;20120;-32
2022/11/26 03:56:45;;;;;;;45.95;26.83;;;3.90;99.90;;;;;;5029033;28;20046;-31
2022/11/26 03:59:10;;;;;;;31.27;20.23;;;4.00;99.90;;;;;;5011522;28;20180;-31
2022/11/26 04:01:36;;;;;;;36.42;22.10;;;3.90;99.90;;;;;;5011862;28;20113;-30
2022/11/26 04:04:02;;;;;;;43.33;24.48;;;3.90;99.90;;;;;;5011194;28;20073;-30
2022/11/26 04:06:28;;;;;;;46.55;23.38;;;3.90;99.90;;;;;;5016183;28;20029;-32
2022/11/26 04:08:54;;;;;;;39.83;24.65;;;3.90;99.90;;;;;;5013940;28;20097;-29
2022/11/26 04:11:20;;;;;;;41.50;24.83;;;4.00;99.90;;;;;;5012735;28;20069;-30
2022/11/26 04:13:46;;;;;;;45.17;25.40;;;4.00;99.90;;;;;;5016295;28;20536;-31
2022/11/26 04:16:11;;;;;;;50.03;26.60;;;4.00;99.90;;;;;;5012205;28;20289;-31
2022/11/26 04:18:37;;;;;;;56.08;29.02;;;4.00;99.90;;;;;;5011172;28;20124;-31
2022/11/26 04:21:07;;;;;;;42.88;25.23;;;4.10;99.90;;;;;;5011578;28;20041;-29
2022/11/26 04:23:33;;;;;;;102.35;34.17;;;4.00;99.90;;;;;;5017153;28;20045;-29
2022/11/26 04:25:59;;;;;;;71.90;28.60;;;4.10;99.90;;;;;;5011304;28;20117;-29
2022/11/26 04:28:25;;;;;;;50.42;25.40;;;4.10;99.90;;;;;;5016169;28;20072;-30
2022/11/26 04:30:51;;;;;;;75.15;27.33;;;4.10;99.90;;;;;;5016455;28;20034;-31
2022/11/26 04:33:17;;;;;;;81.95;26.73;;;4.10;99.90;;;;;;5016829;28;20057;-32
2022/11/26 04:35:43;;;;;;;105.70;31.23;;;4.10;99.90;;;;;;5008933;28;20113;-32
2022/11/26 04:38:09;;;;;;;110.70;28.42;;;4.10;99.90;;;;;;5032102;28;20402;-29
2022/11/26 04:40:35;;;;;;;53.80;24.55;;;4.10;99.90;;;;;;5025447;28;20045;-31
2022/11/26 04:43:00;;;;;;;143.05;34.17;;;4.10;99.90;;;;;;5026791;28;20045;-31
2022/11/26 04:45:26;;;;;;;139.02;29.25;;;4.10;99.90;;;;;;5012479;28;20038;-31
2022/11/26 04:47:53;;;;;;;106.78;27.60;;;4.10;99.90;;;;;;5003847;28;20514;-31
2022/11/26 04:50:18;;;;;;;130.00;31.38;;;4.10;99.90;;;;;;5023830;28;20034;-30
2022/11/26 04:52:47;;;;;;;68.40;25.13;;;4.10;99.90;;;;;;4995896;28;20041;-30
2022/11/26 04:55:13;;;;;;;72.47;23.88;;;4.20;99.90;;;;;;5009995;28;20042;-32
2022/11/26 04:57:39;;;;;;;81.40;25.10;;;4.10;99.90;;;;;;5014714;28;20483;-30
2022/11/26 05:00:06;;;;;;;93.53;26.27;;;4.10;99.90;;;;;;5014518;28;20045;-30
2022/11/26 05:02:32;;;;;;;59.10;21.80;;;4.10;99.90;;;;;;5015561;28;20425;-31
2022/11/26 05:04:58;;;;;;;69.25;23.45;;;4.10;99.90;;;;;;4997880;28;20034;-31
2022/11/26 05:07:24;;;;;;;81.35;22.23;;;4.10;99.90;;;;;;5015422;28;20491;-30
2022/11/26 05:09:50;;;;;;;47.40;20.92;;;4.10;99.90;;;;;;5014231;28;20038;-31
2022/11/26 05:12:15;;;;;;;57.72;21.80;;;4.10;99.90;;;;;;5014140;28;20030;-30
2022/11/26 05:14:41;;;;;;;51.33;20.17;;;4.10;99.90;;;;;;5014268;28;20038;-30
2022/11/26 05:17:07;;;;;;;74.90;23.55;;;4.10;99.90;;;;;;5022160;28;20040;-29
2022/11/26 05:19:33;;;;;;;58.65;24.00;;;4.10;99.90;;;;;;5021302;28;20042;-30
2022/11/26 05:21:59;;;;;;;64.38;23.98;;;4.10;99.90;;;;;;5015082;28;20167;-30
2022/11/26 05:24:25;;;;;;;88.22;22.27;;;4.10;99.90;;;;;;5018569;28;20039;-30
2022/11/26 05:26:50;;;;;;;76.47;22.17;;;4.00;99.90;;;;;;5013972;28;20056;-30
2022/11/26 05:29:16;;;;;;;75.13;21.90;;;4.00;99.90;;;;;;5013089;28;20037;-30
2022/11/26 05:31:45;;;;;;;48.90;20.85;;;4.00;99.90;;;;;;5013225;28;20038;-29
2022/11/26 05:34:11;;;;;;;64.88;21.45;;;4.00;99.90;;;;;;5013396;28;20052;-31
2022/11/26 05:36:36;;;;;;;81.80;22.35;;;4.00;99.90;;;;;;5013226;28;20113;-30
2022/11/26 05:39:02;;;;;;;89.28;21.88;;;4.00;99.90;;;;;;5012667;28;20042;-31
2022/11/26 05:41:28;;;;;;;77.00;22.42;;;4.00;99.90;;;;;;5017420;28;20080;-30
2022/11/26 05:43:54;;;;;;;70.78;22.50;;;4.00;99.90;;;;;;5020394;28;20065;-30
2022/11/26 05:46:20;;;;;;;100.90;27.95;;;4.00;99.90;;;;;;5019715;28;20034;-31
2022/11/26 05:48:46;;;;;;;90.57;22.30;;;4.00;99.90;;;;;;5012917;28;20069;-31
2022/11/26 05:51:11;;;;;;;85.97;23.65;;;4.00;99.90;;;;;;5014584;28;20060;-31
2022/11/26 05:53:37;;;;;;;101.30;24.67;;;4.00;99.90;;;;;;5015406;28;20038;-30
2022/11/26 05:56:03;;;;;;;90.30;24.23;;;4.00;99.90;;;;;;5028050;28;20430;-30
2022/11/26 05:58:29;;;;;;;54.90;21.90;;;4.10;99.90;;;;;;5034330;28;20048;-30
2022/11/26 06:00:55;;;;;;;63.00;22.98;;;4.10;99.90;;;;;;5022475;28;20398;-29
2022/11/26 06:03:20;;;;;;;68.30;21.70;;;4.10;99.90;;;;;;5002225;28;20049;-31
2022/11/26 06:05:46;;;;;;;95.43;24.25;;;4.10;99.90;;;;;;5010951;28;20120;-31
2022/11/26 06:08:12;;;;;;;61.15;23.38;;;4.10;99.90;;;;;;5012986;28;20123;-30
2022/11/26 06:10:41;;;;;;;73.95;23.52;;;4.10;99.90;;;;;;5013256;28;20042;-31
2022/11/26 06:13:07;;;;;;;48.92;21.98;;;4.10;99.90;;;;;;5022400;28;20042;-29
2022/11/26 06:15:32;;;;;;;42.05;21.90;;;4.10;99.90;;;;;;5018154;28;20048;-31
2022/11/26 06:17:58;;;;;;;52.05;22.98;;;4.20;99.90;;;;;;5019774;28;20066;-30
2022/11/26 06:20:24;;;;;;;57.05;23.10;;;4.20;99.90;;;;;;5027194;28;20053;-32
2022/11/26 06:22:50;;;;;;;60.03;25.00;;;4.20;99.90;;;;;;5012455;28;20034;-31
2022/11/26 06:25:16;;;;;;;89.93;28.35;;;4.20;99.90;;;;;;5009968;28;20042;-31
2022/11/26 06:27:42;;;;;;;131.65;31.27;;;4.20;99.90;;;;;;5026181;28;20042;-31
2022/11/26 06:30:10;;;;;;;55.78;24.67;;;4.30;99.90;;;;;;5015937;28;20029;-29
2022/11/26 06:32:36;;;;;;;87.55;30.33;;;4.20;99.90;;;;;;5013401;28;20077;-30
2022/11/26 06:35:02;;;;;;;94.40;30.55;;;4.30;99.90;;;;;;5027095;28;20045;-30
2022/11/26 06:37:28;;;;;;;84.10;29.30;;;4.30;99.90;;;;;;5023620;28;20041;-30
2022/11/26 06:39:54;;;;;;;86.43;31.92;;;4.30;99.90;;;;;;5018854;28;20041;-31
2022/11/26 06:42:22;;;;;;;76.05;29.67;;;4.30;99.90;;;;;;5015491;28;20124;-31
2022/11/26 06:44:48;;;;;;;55.38;27.35;;;4.30;99.90;;;;;;5012297;28;20065;-30
2022/11/26 06:47:13;;;;;;;90.38;31.73;;;4.30;99.90;;;;;;5011947;28;20061;-31
2022/11/26 06:49:39;;;;;;;66.40;28.15;;;4.30;99.90;;;;;;5005649;28;20033;-31
2022/11/26 06:52:05;;;;;;;85.68;28.63;;;4.30;99.90;;;;;;5009287;28;20049;-31
2022/11/26 06:54:31;;;;;;;46.55;23.27;;;4.30;99.90;;;;;;5014857;28;20107;-30
2022/11/26 06:56:58;;;;;;;75.90;28.15;;;4.30;99.90;;;;;;5011979;28;20041;-31
2022/11/26 06:59:24;;;;;;;76.78;28.75;;;4.30;99.90;;;;;;5014266;28;20033;-30
2022/11/26 07:01:50;;;;;;;57.47;27.40;;;4.30;99.90;;;;;;4998475;28;20049;-30
2022/11/26 07:04:16;;;;;;;55.45;27.38;;;4.30;99.90;;;;;;5008764;28;20041;-31
2022/11/26 07:06:44;;;;;;;72.50;29.17;;;4.30;99.90;;;;;;4984516;28;20042;-30
2022/11/26 07:09:10;;;;;;;54.83;25.45;;;4.30;99.90;;;;;;4993959;28;20049;-30
2022/11/26 07:11:38;;;;;;;63.25;27.95;;;4.30;99.90;;;;;;5011866;28;20038;-31
2022/11/26 07:14:04;;;;;;;66.00;27.10;;;4.30;99.90;;;;;;5011476;28;20053;-30
2022/11/26 07:16:31;;;;;;;86.20;31.05;;;4.30;99.90;;;;;;5011391;28;20427;-31
2022/11/26 07:18:58;;;;;;;83.95;31.10;;;4.30;99.90;;;;;;5008679;28;20061;-30
2022/11/26 07:21:26;;;;;;;95.90;34.08;;;4.30;99.90;;;;;;5009711;28;20041;-31
2022/11/26 07:23:52;;;;;;;88.53;33.05;;;4.30;99.90;;;;;;5015282;28;20096;-31
2022/11/26 07:26:20;;;;;;;61.05;30.75;;;4.40;99.90;;;;;;5006253;28;20168;-30
2022/11/26 07:28:46;;;;;;;69.13;31.17;;;4.40;99.90;;;;;;5010885;28;20034;-31
2022/11/26 07:31:16;;;;;;;102.40;35.28;;;4.40;99.90;;;;;;5003603;28;20395;-30
2022/11/26 07:33:42;;;;;;;51.00;27.88;;;4.40;99.90;;;;;;5005583;28;20041;-30
2022/11/26 07:36:18;;;;;;;56.63;29.15;;;4.50;99.90;;;;;;5012048;28;20038;-29
2022/11/26 07:38:44;;;;;;;88.78;37.08;;;4.50;99.90;;;;;;5008470;28;20046;-28
2022/11/26 07:41:13;;;;;;;55.65;31.88;;;4.50;99.90;;;;;;5016006;28;20041;-28
2022/11/26 07:43:41;;;;;;;62.92;30.42;;;4.50;99.90;;;;;;5008521;28;20033;-30
2022/11/26 07:46:09;;;;;;;79.63;34.25;;;4.50;99.90;;;;;;4997510;28;20034;-30
2022/11/26 07:48:38;;;;;;;58.33;30.85;;;4.60;99.90;;;;;;5000549;28;20074;-33
2022/11/26 07:51:05;;;;;;;65.72;28.77;;;4.60;99.90;;;;;;5015492;28;20097;-29
2022/11/26 07:53:33;;;;;;;56.92;26.83;;;4.60;99.90;;;;;;4996629;28;20188;-29
2022/11/26 07:55:59;;;;;;;48.00;26.08;;;4.70;99.90;;;;;;5008108;28;20130;-30
2022/11/26 07:58:25;;;;;;;50.75;27.10;;;4.70;99.90;;;;;;5017419;28;20042;-30
2022/11/26 08:00:52;;;;;;;55.47;26.58;;;4.70;99.90;;;;;;5012184;28;20034;-29
2022/11/26 08:03:17;;;;;;;50.17;26.20;;;4.70;99.90;;;;;;5013272;28;20286;-29
2022/11/26 08:05:44;;;;;;;59.15;25.58;;;4.70;99.90;;;;;;5003430;28;20037;-31
2022/11/26 08:08:11;;;;;;;53.35;26.92;;;4.70;99.90;;;;;;5008813;28;20046;-29
2022/11/26 08:10:39;;;;;;;55.85;26.92;;;4.70;99.90;;;;;;5013882;28;20057;-29
2022/11/26 08:13:05;;;;;;;73.40;31.23;;;4.70;99.90;;;;;;5014849;28;20404;-31
2022/11/26 08:15:31;;;;;;;51.83;25.50;;;4.80;99.90;;;;;;5015979;28;20042;-30
2022/11/26 08:17:58;;;;;;;36.72;25.00;;;4.80;99.90;;;;;;5015176;28;20054;-30
2022/11/26 08:20:24;;;;;;;52.42;25.92;;;4.80;99.90;;;;;;5015671;28;20061;-31
2022/11/26 08:22:50;;;;;;;46.30;26.65;;;4.90;99.90;;;;;;5025746;28;20142;-30
2022/11/26 08:25:16;;;;;;;42.00;25.52;;;4.90;99.90;;;;;;5004982;28;20049;-31
2022/11/26 08:27:42;;;;;;;47.63;26.83;;;4.90;99.90;;;;;;5022298;28;20100;-32
2022/11/26 08:30:09;;;;;;;45.28;25.02;;;4.90;99.90;;;;;;5019723;28;20033;-30
2022/11/26 08:32:35;;;;;;;47.00;26.75;;;5.00;99.90;;;;;;5014557;28;20063;-31
2022/11/26 08:35:01;;;;;;;47.60;28.30;;;5.00;99.90;;;;;;5020012;28;20095;-29
2022/11/26 08:37:27;;;;;;;52.90;28.52;;;5.10;99.90;;;;;;5028708;28;20034;-31
2022/11/26 08:39:53;;;;;;;53.53;29.45;;;5.10;99.90;;;;;;5017752;28;20038;-30
2022/11/26 08:42:19;;;;;;;61.47;31.48;;;5.20;99.90;;;;;;5031317;28;20064;-30
2022/11/26 08:44:45;;;;;;;46.45;27.17;;;5.20;99.90;;;;;;5018649;28;20125;-29
2022/11/26 08:47:11;;;;;;;46.17;28.00;;;5.30;99.90;;;;;;5015880;28;20072;-30
2022/11/26 08:49:36;;;;;;;45.92;27.33;;;5.30;99.90;;;;;;5017111;28;20073;-32
2022/11/26 08:52:03;;;;;;;47.28;26.42;;;5.40;99.90;;;;;;5023001;28;20465;-31
2022/11/26 08:54:29;;;;;;;43.50;26.48;;;5.40;99.90;;;;;;5004520;28;20041;-30
2022/11/26 08:56:55;;;;;;;47.92;29.10;;;5.50;99.90;;;;;;4991985;28;20101;-30
2022/11/26 08:59:23;;;;;;;43.30;24.83;;;5.60;99.90;;;;;;5014398;28;20419;-32
2022/11/26 09:01:49;;;;;;;43.45;26.35;;;5.60;99.90;;;;;;5014205;28;20463;-32
2022/11/26 09:04:15;;;;;;;47.47;29.20;;;5.70;99.90;;;;;;5014302;28;20169;-31
2022/11/26 09:06:41;;;;;;;50.20;28.08;;;5.70;99.90;;;;;;5015181;28;20459;-32
2022/11/26 09:09:13;;;;;;;49.92;28.02;;;5.80;99.90;;;;;;5020433;28;20034;-30
2022/11/26 09:11:48;;;;;;;49.92;29.17;;;5.80;99.90;;;;;;5011714;28;20030;-31
2022/11/26 09:14:15;;;;;;;53.85;28.65;;;5.80;99.90;;;;;;5015432;28;20042;-31
2022/11/26 09:16:41;;;;;;;58.80;30.83;;;5.90;99.90;;;;;;5007957;28;20042;-32
2022/11/26 09:19:07;;;;;;;54.90;30.08;;;6.00;99.90;;;;;;5005127;28;20038;-32
2022/11/26 09:21:34;;;;;;;49.10;28.35;;;6.00;99.90;;;;;;5013506;28;20442;-31
2022/11/26 09:24:00;;;;;;;55.63;30.73;;;6.00;99.90;;;;;;5022035;28;20078;-32
2022/11/26 09:26:26;;;;;;;52.45;28.30;;;6.00;99.90;;;;;;5009026;28;20038;-32
2022/11/26 09:28:52;;;;;;;60.63;31.95;;;6.00;99.90;;;;;;5018137;28;20041;-31
2022/11/26 09:31:19;;;;;;;54.40;29.65;;;6.10;99.90;;;;;;5014322;28;20131;-31
2022/11/26 09:33:45;;;;;;;50.03;30.35;;;6.10;99.90;;;;;;4998045;28;20111;-32
2022/11/26 09:36:14;;;;;;;60.13;32.05;;;6.10;99.90;;;;;;5016257;28;20483;-31
2022/11/26 09:38:40;;;;;;;53.13;29.98;;;6.20;99.90;;;;;;5003136;28;20045;-30
2022/11/26 09:41:28;;;;;;;48.85;29.73;;;6.20;99.90;;;;;;5013704;28;20080;-32
2022/11/26 09:44:22;;;;;;;56.80;31.80;;;6.20;99.90;;;;;;5002943;28;20053;-31
2022/11/26 09:47:09;;;;;;;58.97;29.67;;;6.30;99.90;;;;;;5027379;28;20399;-33
2022/11/26 09:49:46;;;;;;;63.40;31.42;;;6.30;99.90;;;;;;5020008;28;20046;-31
2022/11/26 09:52:16;;;;;;;66.28;33.00;;;6.40;99.90;;;;;;5015546;28;20111;-31
2022/11/26 09:54:44;;;;;;;61.72;32.95;;;6.40;99.90;;;;;;5016050;28;20490;-32
2022/11/26 09:57:26;;;;;;;74.18;37.67;;;6.50;99.90;;;;;;5020942;28;20049;-33
2022/11/26 09:59:54;;;;;;;62.50;35.92;;;6.50;99.90;;;;;;5014210;28;20056;-33
2022/11/26 10:02:20;;;;;;;65.43;37.05;;;6.60;99.90;;;;;;5012741;28;20042;-32
2022/11/26 10:04:47;;;;;;;59.63;34.38;;;6.60;99.90;;;;;;5018545;28;20184;-30
2022/11/26 10:08:01;;;;;;;66.97;36.63;;;6.60;99.90;;;;;;5022110;28;20057;-30
2022/11/26 10:10:42;;;;;;;68.43;36.00;;;6.70;99.90;;;;;;4980598;28;20416;-30
2022/11/26 10:13:25;;;;;;;74.57;35.33;;;6.70;99.90;;;;;;4997534;28;20407;-30
2022/11/26 10:16:01;;;;;;;71.43;36.38;;;6.70;99.90;;;;;;5012578;28;20108;-30
2022/11/26 10:18:50;;;;;;;66.20;35.45;;;6.80;99.90;;;;;;5012580;28;20108;-32
2022/11/26 10:21:28;;;;;;;64.95;34.75;;;6.80;99.90;;;;;;5004720;28;20038;-31
2022/11/26 10:24:03;;;;;;;70.38;34.58;;;6.80;99.90;;;;;;5011767;28;20100;-30
2022/11/26 10:26:32;;;;;;;66.70;34.38;;;6.80;99.90;;;;;;5012817;28;20479;-31
2022/11/26 10:29:33;;;;;;;70.25;36.85;;;6.90;99.90;;;;;;5012264;28;20038;-31
2022/11/26 10:32:10;;;;;;;68.03;38.63;;;6.90;99.90;;;;;;5010984;28;20048;-32
2022/11/26 10:34:41;;;;;;;74.45;38.55;;;6.90;99.90;;;;;;5012812;28;20073;-31
2022/11/26 10:37:07;;;;;;;72.28;36.40;;;6.90;99.90;;;;;;5011910;28;20029;-31
2022/11/26 10:39:33;;;;;;;70.18;35.72;;;6.90;99.90;;;;;;5011706;28;20037;-30
2022/11/26 10:42:08;;;;;;;66.50;37.38;;;6.90;99.90;;;;;;5012036;28;20034;-31
2022/11/26 10:44:39;;;;;;;78.80;41.15;;;6.90;99.90;;;;;;5012708;28;20034;-30
2022/11/26 10:47:29;;;;;;;83.20;41.17;;;7.00;99.90;;;;;;5015587;28;20072;-32
2022/11/26 10:50:18;;;;;;;78.75;39.13;;;7.00;99.90;;;;;;4995707;28;20041;-30
2022/11/26 10:52:45;;;;;;;67.47;38.88;;;7.10;99.90;;;;;;5011320;28;20487;-32
2022/11/26 10:55:18;;;;;;;74.95;37.78;;;7.10;99.90;;;;;;5014886;28;20391;-30
2022/11/26 10:57:49;;;;;;;;;;;7.10;99.90;;;;;;5010950;28;20044;-30
2022/11/26 11:00:36;;;;;;;65.90;35.72;;;7.20;99.90;;;;;;5010910;28;19917;-31
2022/11/26 11:03:04;;;;;;;67.35;36.85;;;7.20;99.90;;;;;;5011307;28;20042;-32
2022/11/26 11:05:33;;;;;;;73.05;35.28;;;7.30;99.90;;;;;;5026227;28;20124;-32
2022/11/26 11:07:59;;;;;;;68.82;35.25;;;7.40;99.90;;;;;;5022164;28;20041;-30
2022/11/26 11:10:25;;;;;;;63.95;34.40;;;7.40;99.90;;;;;;5011857;28;20526;-31
2022/11/26 11:13:11;;;;;;;72.43;35.55;;;7.50;99.90;;;;;;5008529;28;20120;-31
2022/11/26 11:15:39;;;;;;;75.57;37.95;;;7.50;99.90;;;;;;5022240;28;20080;-32
2022/11/26 11:18:05;;;;;;;72.30;34.38;;;7.60;99.90;;;;;;5021221;28;20045;-30
2022/11/26 11:20:36;;;;;;;70.47;35.47;;;7.60;99.90;;;;;;5010218;28;20422;-31
2022/11/26 11:23:11;;;;;;;74.20;35.72;;;7.70;99.90;;;;;;5009476;28;20050;-31
2022/11/26 11:25:45;;;;;;;63.75;36.50;;;7.70;99.90;;;;;;5011518;28;20426;-30
2022/11/26 11:28:23;;;;;;;58.92;32.97;;;7.80;99.90;;;;;;5010717;28;20033;-31
2022/11/26 11:31:13;;;;;;;71.20;34.42;;;7.80;99.90;;;;;;5011182;28;20037;-31
2022/11/26 11:33:39;;;;;;;58.95;33.72;;;7.80;99.90;;;;;;5011186;28;20049;-33
2022/11/26 11:36:14;;;;;;;62.28;34.92;;;7.80;99.90;;;;;;5010354;28;20131;-31
2022/11/26 11:38:56;;;;;;;68.60;33.40;;;7.90;99.90;;;;;;5011470;28;20037;-31
2022/11/26 11:41:31;;;;;;;66.15;32.45;;;7.90;99.90;;;;;;5011118;28;20063;-30
2022/11/26 11:44:16;;;;;;;65.05;33.40;;;8.00;99.90;;;;;;5011231;28;20483;-31
2022/11/26 11:46:48;;;;;;;54.47;32.30;;;8.00;99.90;;;;;;5012509;28;20398;-30
2022/11/26 11:49:20;;;;;;;61.72;30.50;;;8.00;99.90;;;;;;5026342;28;20117;-32
2022/11/26 11:51:54;;;;;;;58.42;31.63;;;8.10;99.90;;;;;;5030928;28;20183;-30
2022/11/26 11:54:44;;;;;;;63.72;32.53;;;8.00;99.90;;;;;;5015759;28;20151;-30
2022/11/26 11:57:34;;;;;;;59.53;32.78;;;8.10;99.90;;;;;;5010678;28;20266;-32
2022/11/26 12:00:22;;;;;;;63.22;32.33;;;8.10;99.90;;;;;;5010152;28;20046;-30
2022/11/26 12:03:26;;;;;;;61.78;31.58;;;8.10;99.90;;;;;;5010911;28;20171;-31
2022/11/26 12:06:17;;;;;;;57.78;31.13;;;8.10;99.90;;;;;;4968070;28;20082;-31
2022/11/26 12:09:24;;;;;;;65.18;34.58;;;8.10;99.90;;;;;;5011182;28;20083;-31
2022/11/26 12:12:01;;;;;;;60.95;33.15;;;8.20;99.90;;;;;;5012299;28;20041;-29
2022/11/26 12:14:46;;;;;;;59.45;31.10;;;8.20;99.90;;;;;;5010867;28;20065;-32
2022/11/26 12:17:47;;;;;;;58.30;31.02;;;8.20;99.90;;;;;;4996868;28;20038;-31
2022/11/26 12:20:20;;;;;;;54.30;31.60;;;8.20;99.90;;;;;;5003554;28;20610;-30
2022/11/26 12:23:15;;;;;;;53.25;30.13;;;8.20;99.90;;;;;;5011652;28;20049;-31
2022/11/26 12:25:42;;;;;;;54.17;29.65;;;8.10;99.90;;;;;;5019334;28;20038;-30
2022/11/26 12:28:13;;;;;;;50.15;30.27;;;8.20;99.90;;;;;;5010663;28;20095;-30
2022/11/26 12:30:54;;;;;;;49.17;28.95;;;8.20;99.90;;;;;;5018467;28;20034;-30
2022/11/26 12:33:30;;;;;;;52.80;28.67;;;8.20;99.90;;;;;;5028615;28;20042;-30
2022/11/26 12:36:05;;;;;;;50.92;28.60;;;8.20;99.90;;;;;;5019269;28;20129;-29
2022/11/26 12:38:40;;;;;;;46.83;26.02;;;8.20;99.90;;;;;;5021134;28;20099;-30
2022/11/26 12:41:17;;;;;;;46.17;26.15;;;8.20;99.90;;;;;;5010262;28;20132;-30
2022/11/26 12:44:06;;;;;;;54.67;28.17;;;8.20;99.90;;;;;;5022701;28;20061;-30
2022/11/26 12:46:43;;;;;;;51.88;27.40;;;8.30;99.90;;;;;;5009521;28;20404;-31
2022/11/26 12:49:15;;;;;;;46.22;25.90;;;8.30;99.90;;;;;;5013239;28;20041;-31
2022/11/26 12:52:03;;;;;;;47.03;25.77;;;8.30;99.90;;;;;;5014755;28;20030;-30